Time;durP1;ratioP1;P1;durP2;ratioP2;P2;SDS_P1;SDS_P2;PMS_P1;PMS_P2;Temp;Humidity;BMP_temperature;BMP_pressure;BME280_temperature;BME280_humidity;BME280_pressure;Samples;Min_cycle;Max_cycle;Signal;HPM_P1;HPM_P2
2022/03/25 00:00:19;;;;;;;;;;;5.40;99.90;;;;;;5010802;28;19917;-78
2022/03/25 00:02:45;;;;;;;;;;;6.40;99.90;;;;;;5007641;28;20276;-78
2022/03/25 00:05:11;;;;;;;;;;;6.00;99.90;;;;;;4987107;28;19917;-78
2022/03/25 00:07:36;;;;;;;;;;;6.00;99.90;;;;;;4987790;28;19924;-78
2022/03/25 00:10:03;;;;;;;;;;;5.50;99.90;;;;;;5004553;28;20262;-78
2022/03/25 00:12:29;;;;;;;;;;;5.40;99.90;;;;;;5022857;28;19929;-78
2022/03/25 00:14:54;;;;;;;;;;;6.20;99.90;;;;;;4970678;28;19917;-78
2022/03/25 00:17:20;;;;;;;;;;;5.40;99.90;;;;;;4971084;28;19925;-78
2022/03/25 00:19:45;;;;;;;;;;;5.30;99.90;;;;;;4988227;28;19929;-78
2022/03/25 00:22:11;;;;;;;;;;;5.30;99.90;;;;;;4987143;28;20387;-78
2022/03/25 00:24:37;;;;;;;;;;;5.30;99.90;;;;;;4990352;28;19918;-78
2022/03/25 00:27:04;;;;;;;;;;;5.40;99.90;;;;;;4974144;28;19917;-78
2022/03/25 00:29:29;;;;;;;;;;;5.30;99.90;;;;;;4974004;28;19930;-78
2022/03/25 00:31:55;;;;;;;;;;;5.30;99.90;;;;;;5019337;28;20017;-78
2022/03/25 00:34:20;;;;;;;;;;;6.50;99.90;;;;;;4970823;28;19948;-78
2022/03/25 00:36:46;;;;;;;;;;;5.30;99.90;;;;;;4988024;28;20008;-78
2022/03/25 00:39:12;;;;;;;;;;;5.30;99.90;;;;;;4991052;28;20005;-78
2022/03/25 00:41:37;;;;;;;;;;;5.30;99.90;;;;;;4974729;28;19918;-78
2022/03/25 00:44:05;;;;;;;;;;;5.20;99.90;;;;;;4990534;28;19940;-78
2022/03/25 00:46:31;;;;;;;;;;;5.10;99.90;;;;;;4975017;28;20423;-78
2022/03/25 00:48:56;;;;;;;;;;;5.00;99.90;;;;;;4976133;28;19934;-78
2022/03/25 00:51:22;;;;;;;;;;;5.60;99.90;;;;;;4992154;28;19921;-78
2022/03/25 00:53:48;;;;;;;;;;;5.10;99.90;;;;;;4992197;28;19925;-78
2022/03/25 00:56:13;;;;;;;;;;;5.10;99.90;;;;;;5008452;28;19925;-78
2022/03/25 00:58:39;;;;;;;;;;;5.20;99.90;;;;;;4992411;28;19972;-78
2022/03/25 01:01:05;;;;;;;;;;;5.10;99.90;;;;;;4992362;28;19968;-78
2022/03/25 01:03:31;;;;;;;;;;;5.10;99.90;;;;;;4992271;28;19917;-78
2022/03/25 01:05:57;;;;;;;;;;;5.50;99.90;;;;;;4992035;28;19943;-78
2022/03/25 01:08:23;;;;;;;;;;;4.90;99.90;;;;;;5008049;28;20004;-78
2022/03/25 01:10:48;;;;;;;;;;;4.90;99.90;;;;;;5007163;28;19968;-78
2022/03/25 01:13:14;;;;;;;;;;;4.90;99.90;;;;;;5006568;28;19918;-78
2022/03/25 01:15:40;;;;;;;;;;;4.80;99.90;;;;;;5006864;28;20399;-78
2022/03/25 01:18:06;;;;;;;;;;;4.80;99.90;;;;;;4990049;28;19921;-78
2022/03/25 01:20:31;;;;;;;;;;;4.80;99.90;;;;;;5006366;28;20008;-78
2022/03/25 01:22:57;;;;;;;;;;;4.90;99.90;;;;;;5007676;28;19925;-78
2022/03/25 01:25:23;;;;;;;;;;;4.70;99.90;;;;;;4976257;28;19940;-78
2022/03/25 01:27:48;;;;;;;;;;;5.20;99.90;;;;;;4984910;28;19917;-78
2022/03/25 01:30:14;;;;;;;;;;;4.60;99.90;;;;;;4993132;28;19975;-78
2022/03/25 01:32:40;;;;;;;;;;;4.60;99.90;;;;;;5008312;28;19917;-78
2022/03/25 01:35:06;;;;;;;;;;;5.40;99.90;;;;;;4996545;28;19921;-78
2022/03/25 01:37:32;;;;;;;;;;;4.60;99.90;;;;;;4997528;28;19928;-78
2022/03/25 01:39:58;;;;;;;;;;;4.50;99.90;;;;;;5010035;28;19921;-78
2022/03/25 01:42:34;;;;;;;;;;;4.50;99.90;;;;;;4994943;28;19917;-78
2022/03/25 01:45:00;;;;;;;;;;;4.50;99.90;;;;;;4995078;28;20032;-78
2022/03/25 01:47:29;;;;;;;;;;;4.20;99.90;;;;;;5009637;28;19921;-78
2022/03/25 01:49:55;;;;;;;;;;;4.50;99.90;;;;;;5009718;28;19924;-78
2022/03/25 01:52:21;;;;;;;;;;;4.90;99.90;;;;;;5009030;28;19921;-78
2022/03/25 01:54:47;;;;;;;;;;;4.50;99.90;;;;;;4977363;28;19928;-78
2022/03/25 01:57:12;;;;;;;;;;;4.50;99.90;;;;;;5011421;28;19928;-78
2022/03/25 01:59:38;;;;;;;;;;;4.50;99.90;;;;;;4994392;28;19923;-78
2022/03/25 02:02:04;;;;;;;;;;;4.50;99.90;;;;;;4993450;28;19985;-78
2022/03/25 02:04:30;;;;;;;;;;;5.60;99.90;;;;;;4993454;28;19973;-78
2022/03/25 02:06:55;;;;;;;;;;;4.90;99.90;;;;;;4990395;28;19944;-77
2022/03/25 02:09:21;;;;;;;;;;;4.50;99.90;;;;;;4975399;28;19925;-77
2022/03/25 02:11:47;;;;;;;;;;;5.40;99.90;;;;;;4992210;28;19918;-77
2022/03/25 02:14:12;;;;;;;;;;;4.50;99.90;;;;;;4991222;28;19917;-77
2022/03/25 02:16:39;;;;;;;;;;;4.50;99.90;;;;;;4990381;28;19928;-77
2022/03/25 02:19:05;;;;;;;;;;;4.60;99.90;;;;;;4974693;28;19973;-77
2022/03/25 02:21:32;;;;;;;;;;;6.20;99.90;;;;;;4991526;28;19941;-77
2022/03/25 02:23:57;;;;;;;;;;;5.00;99.90;;;;;;4991559;28;19925;-77
2022/03/25 02:26:23;;;;;;;;;;;4.40;99.90;;;;;;4974882;28;19917;-77
2022/03/25 02:28:49;;;;;;;;;;;4.70;99.90;;;;;;4989497;28;19917;-77
2022/03/25 02:31:17;;;;;;;;;;;4.30;99.90;;;;;;4974857;28;19917;-77
2022/03/25 02:33:42;;;;;;;;;;;4.90;99.90;;;;;;4975699;28;19918;-77
2022/03/25 02:36:08;;;;;;;;;;;4.20;99.90;;;;;;4975187;28;19922;-77
2022/03/25 02:38:34;;;;;;;;;;;4.90;99.90;;;;;;4974772;28;19942;-77
2022/03/25 02:41:00;;;;;;;;;;;4.50;99.90;;;;;;4991211;28;20006;-77
2022/03/25 02:43:26;;;;;;;;;;;4.00;99.90;;;;;;4990617;28;19968;-77
2022/03/25 02:45:51;;;;;;;;;;;4.00;99.90;;;;;;4988349;28;19929;-77
2022/03/25 02:48:17;;;;;;;;;;;3.90;99.90;;;;;;5001655;28;19941;-77
2022/03/25 02:50:42;;;;;;;;;;;5.00;99.90;;;;;;4973595;28;19918;-77
2022/03/25 02:53:08;;;;;;;;;;;3.80;99.90;;;;;;4989985;28;19968;-77
2022/03/25 02:55:34;;;;;;;;;;;3.70;99.90;;;;;;4982927;28;20008;-77
2022/03/25 02:58:00;;;;;;;;;;;4.40;99.90;;;;;;4989898;28;19960;-77
2022/03/25 03:00:26;;;;;;;;;;;3.60;99.90;;;;;;4974862;28;19922;-77
2022/03/25 03:02:52;;;;;;;;;;;3.90;99.90;;;;;;4973522;28;19940;-77
2022/03/25 03:05:18;;;;;;;;;;;4.70;99.90;;;;;;4990846;28;20284;-77
2022/03/25 03:07:45;;;;;;;;;;;3.50;99.90;;;;;;4974530;28;19918;-77
2022/03/25 03:10:11;;;;;;;;;;;5.20;99.90;;;;;;4974028;28;19918;-77
2022/03/25 03:12:37;;;;;;;;;;;3.50;99.90;;;;;;4974129;28;19917;-77
2022/03/25 03:15:03;;;;;;;;;;;3.70;99.90;;;;;;4974725;28;19918;-77
2022/03/25 03:17:29;;;;;;;;;;;3.50;99.90;;;;;;4991677;28;19918;-77
2022/03/25 03:19:55;;;;;;;;;;;3.50;99.90;;;;;;4973274;28;19922;-77
2022/03/25 03:22:20;;;;;;;;;;;3.60;99.90;;;;;;4989915;28;19917;-77
2022/03/25 03:24:46;;;;;;;;;;;3.50;99.90;;;;;;4973554;28;19984;-77
2022/03/25 03:27:12;;;;;;;;;;;4.40;99.90;;;;;;4989571;28;19929;-77
2022/03/25 03:29:37;;;;;;;;;;;4.00;99.90;;;;;;4974198;28;19902;-77
2022/03/25 03:32:04;;;;;;;;;;;4.20;99.90;;;;;;4990292;28;19924;-77
2022/03/25 03:34:29;;;;;;;;;;;3.40;99.90;;;;;;4989600;28;19918;-77
2022/03/25 03:36:55;;;;;;;;;;;4.80;99.90;;;;;;4971987;28;19968;-77
2022/03/25 03:39:20;;;;;;;;;;;3.80;99.90;;;;;;4988572;28;19929;-77
2022/03/25 03:41:46;;;;;;;;;;;4.00;99.90;;;;;;4991259;28;19983;-77
2022/03/25 03:44:12;;;;;;;;;;;3.20;99.90;;;;;;4981407;28;20008;-77
2022/03/25 03:46:37;;;;;;;;;;;3.20;99.90;;;;;;5013496;28;19918;-77
2022/03/25 03:49:03;;;;;;;;;;;3.90;99.90;;;;;;5013715;28;19924;-77
2022/03/25 03:51:28;;;;;;;;;;;3.10;99.90;;;;;;5046957;28;19996;-77
2022/03/25 03:53:54;;;;;;;;;;;3.10;99.90;;;;;;5031155;28;19924;-77
2022/03/25 03:56:22;;;;;;;;;;;4.30;99.90;;;;;;4994504;28;19929;-77
2022/03/25 03:58:47;;;;;;;;;;;3.10;99.90;;;;;;5011310;28;20385;-77
2022/03/25 04:01:13;;;;;;;;;;;3.20;99.90;;;;;;5043915;28;19917;-77
2022/03/25 04:03:39;;;;;;;;;;;3.30;99.90;;;;;;4994483;28;19941;-77
2022/03/25 04:06:05;;;;;;;;;;;3.60;99.90;;;;;;5010628;28;19918;-77
2022/03/25 04:08:31;;;;;;;;;;;3.40;99.90;;;;;;5027131;28;19940;-77
2022/03/25 04:10:56;;;;;;;;;;;3.50;99.90;;;;;;5044423;28;19921;-77
2022/03/25 04:13:22;;;;;;;;;;;3.90;99.90;;;;;;4994746;28;19940;-77
2022/03/25 04:15:48;;;;;;;;;;;3.30;99.90;;;;;;4994304;28;19928;-77
2022/03/25 04:18:13;;;;;;;;;;;3.20;99.90;;;;;;5026207;28;19921;-77
2022/03/25 04:20:39;;;;;;;;;;;3.10;99.90;;;;;;4993622;28;19949;-77
2022/03/25 04:23:05;;;;;;;;;;;3.20;99.90;;;;;;4994242;28;19917;-77
2022/03/25 04:25:30;;;;;;;;;;;2.90;99.90;;;;;;4993859;28;19917;-77
2022/03/25 04:27:57;;;;;;;;;;;4.30;99.90;;;;;;4993634;28;19945;-77
2022/03/25 04:30:24;;;;;;;;;;;4.20;99.90;;;;;;5042989;28;19917;-77
2022/03/25 04:32:50;;;;;;;;;;;4.00;99.90;;;;;;5042697;28;19965;-77
2022/03/25 04:35:17;;;;;;;;;;;2.70;99.90;;;;;;5033395;28;19929;-77
2022/03/25 04:37:42;;;;;;;;;;;2.60;99.90;;;;;;4992645;28;20008;-77
2022/03/25 04:40:12;;;;;;;;;;;3.10;99.90;;;;;;5009123;28;19917;-77
2022/03/25 04:42:37;;;;;;;;;;;2.70;99.90;;;;;;4994049;28;19918;-77
2022/03/25 04:45:03;;;;;;;;;;;3.90;99.90;;;;;;5009926;28;19941;-77
2022/03/25 04:47:29;;;;;;;;;;;2.90;99.90;;;;;;4993151;28;19932;-77
2022/03/25 04:49:56;;;;;;;;;;;2.90;99.90;;;;;;4977754;28;19918;-77
2022/03/25 04:52:21;;;;;;;;;;;3.20;99.90;;;;;;4994408;28;19941;-77
2022/03/25 04:54:47;;;;;;;;;;;2.90;99.90;;;;;;4994455;28;19917;-77
2022/03/25 04:57:12;;;;;;;;;;;2.80;99.90;;;;;;4995752;28;19928;-77
2022/03/25 04:59:38;;;;;;;;;;;2.70;99.90;;;;;;5012380;28;19917;-77
2022/03/25 05:02:04;;;;;;;;;;;3.50;99.90;;;;;;4979839;28;19917;-77
2022/03/25 05:04:29;;;;;;;;;;;2.60;99.90;;;;;;5012491;28;19917;-77
2022/03/25 05:06:55;;;;;;;;;;;2.60;99.90;;;;;;5013098;28;19922;-77
2022/03/25 05:09:20;;;;;;;;;;;3.20;99.90;;;;;;4997899;28;19964;-77
2022/03/25 05:11:46;;;;;;;;;;;2.70;99.90;;;;;;5000619;28;19980;-77
2022/03/25 05:14:12;;;;;;;;;;;2.70;99.90;;;;;;4984547;28;19926;-77
2022/03/25 05:16:37;;;;;;;;;;;3.20;99.90;;;;;;4999569;28;19922;-77
2022/03/25 05:19:03;;;;;;;;;;;2.90;99.90;;;;;;5015848;28;19917;-77
2022/03/25 05:21:29;;;;;;;;;;;2.90;99.90;;;;;;5000528;28;19968;-77
2022/03/25 05:23:54;;;;;;;;;;;2.90;99.90;;;;;;4997519;28;19917;-77
2022/03/25 05:26:20;;;;;;;;;;;3.30;99.90;;;;;;4981866;28;19918;-77
2022/03/25 05:28:46;;;;;;;;;;;3.30;99.90;;;;;;4997037;28;19922;-77
2022/03/25 05:31:12;;;;;;;;;;;2.90;99.90;;;;;;4980722;28;19918;-77
2022/03/25 05:33:37;;;;;;;;;;;3.90;99.90;;;;;;4988796;28;19980;-78
2022/03/25 05:36:03;;;;;;;;;;;2.80;99.90;;;;;;5000256;28;19928;-78
2022/03/25 05:38:30;;;;;;;;;;;2.80;99.90;;;;;;5016679;28;19917;-78
2022/03/25 05:40:56;;;;;;;;;;;2.90;99.90;;;;;;5000581;28;19928;-78
2022/03/25 05:43:24;;;;;;;;;;;2.90;99.90;;;;;;5001979;28;19918;-79
2022/03/25 05:45:59;;;;;;;;;;;2.90;99.90;;;;;;5018017;28;19918;-78
2022/03/25 05:48:25;;;;;;;;;;;3.10;99.90;;;;;;5001183;28;19941;-78
2022/03/25 05:50:51;;;;;;;;;;;3.00;99.90;;;;;;5017363;28;19918;-79
2022/03/25 05:53:16;;;;;;;;;;;4.10;99.90;;;;;;4994694;28;19918;-79
2022/03/25 05:55:42;;;;;;;;;;;4.00;99.90;;;;;;4970922;28;19977;-78
2022/03/25 05:58:10;;;;;;;;;;;3.10;99.90;;;;;;4969382;28;19993;-78
2022/03/25 06:00:36;;;;;;;;;;;3.10;99.90;;;;;;4994509;28;20008;-80
2022/03/25 06:03:17;;;;;;;;;;;3.00;99.90;;;;;;4976427;28;19918;-80
2022/03/25 06:05:43;;;;;;;;;;;2.90;99.90;;;;;;4976119;28;20448;-81
2022/03/25 06:08:09;;;;;;;;;;;3.30;99.90;;;;;;4996726;28;19918;-79
2022/03/25 06:10:35;;;;;;;;;;;4.30;99.90;;;;;;4995971;28;19940;-79
2022/03/25 06:13:01;;;;;;;;;;;2.90;99.90;;;;;;4980582;28;19918;-79
2022/03/25 06:15:27;;;;;;;;;;;3.90;99.90;;;;;;4976643;28;19929;-79
2022/03/25 06:17:53;;;;;;;;;;;2.90;99.90;;;;;;4957643;28;19922;-78
2022/03/25 06:20:20;;;;;;;;;;;3.00;99.90;;;;;;4955791;28;20016;-78
2022/03/25 06:22:45;;;;;;;;;;;3.00;99.90;;;;;;4972022;28;20182;-78
2022/03/25 06:25:11;;;;;;;;;;;3.00;99.90;;;;;;4956369;28;20400;-78
2022/03/25 06:27:56;;;;;;;;;;;3.10;99.90;;;;;;4957154;28;19917;-77
2022/03/25 06:30:24;;;;;;;;;;;3.10;99.90;;;;;;4972948;28;19922;-77
2022/03/25 06:32:50;;;;;;;;;;;3.20;99.90;;;;;;4972779;28;19925;-77
2022/03/25 06:35:15;;;;;;;;;;;3.80;99.90;;;;;;4972165;28;19965;-77
2022/03/25 06:37:41;;;;;;;;;;;3.20;99.90;;;;;;4973322;28;19918;-77
2022/03/25 06:40:07;;;;;;;;;;;3.60;99.90;;;;;;4989595;28;19922;-77
2022/03/25 06:42:37;;;;;;;;;;;3.90;99.90;;;;;;4973187;28;19942;-77
2022/03/25 06:45:03;;;;;;;;;;;4.20;99.90;;;;;;4989351;28;19924;-77
2022/03/25 06:47:29;;;;;;;;;;;4.40;99.90;;;;;;4988814;28;19931;-77
2022/03/25 06:49:55;;;;;;;;;;;4.60;99.90;;;;;;4973257;28;19918;-77
2022/03/25 06:52:20;;;;;;;;;;;5.10;99.90;;;;;;4972256;28;19968;-77
2022/03/25 06:54:46;;;;;;;;;;;5.40;99.90;;;;;;4989256;28;19922;-77
2022/03/25 06:57:12;;;;;;;;;;;5.50;99.90;;;;;;4988418;28;19922;-77
2022/03/25 06:59:38;;;;;;;;;;;5.50;99.90;;;;;;4972335;28;19918;-77
2022/03/25 07:02:04;;;;;;;;;;;5.70;99.90;;;;;;4991875;28;19918;-77
2022/03/25 07:04:29;;;;;;;;;;;5.90;99.90;;;;;;5008521;28;19924;-77
2022/03/25 07:06:55;;;;;;;;;;;6.30;99.90;;;;;;5008657;28;19917;-77
2022/03/25 07:09:21;;;;;;;;;;;6.60;99.90;;;;;;4976329;28;19918;-77
2022/03/25 07:11:47;;;;;;;;;;;6.70;99.90;;;;;;4992846;28;19948;-77
2022/03/25 07:14:13;;;;;;;;;;;7.30;99.90;;;;;;4989875;28;20439;-77
2022/03/25 07:16:42;;;;;;;;;;;7.50;99.90;;;;;;5008532;28;19944;-77
2022/03/25 07:19:10;;;;;;;;;;;7.70;99.90;;;;;;5008828;28;19918;-77
2022/03/25 07:21:37;;;;;;;;;;;8.20;99.90;;;;;;4992711;28;19921;-77
2022/03/25 07:24:02;;;;;;;;;;;8.40;99.90;;;;;;4977189;28;19918;-77
2022/03/25 07:26:28;;;;;;;;;;;8.10;99.90;;;;;;4993115;28;19918;-77
2022/03/25 07:28:53;;;;;;;;;;;8.10;99.90;;;;;;4976706;28;20008;-77
2022/03/25 07:31:19;;;;;;;;;;;8.40;99.90;;;;;;4993035;28;19956;-77
2022/03/25 07:33:44;;;;;;;;;;;8.90;99.90;;;;;;5008090;28;19980;-77
2022/03/25 07:36:10;;;;;;;;;;;9.40;99.90;;;;;;4992719;28;19925;-77
2022/03/25 07:38:36;;;;;;;;;;;9.70;99.90;;;;;;5008173;28;19929;-77
2022/03/25 07:41:03;;;;;;;;;;;9.90;99.90;;;;;;4991531;28;19924;-77
2022/03/25 07:43:32;;;;;;;;;;;9.60;99.90;;;;;;5007559;28;20463;-77
2022/03/25 07:45:58;;;;;;;;;;;9.60;99.90;;;;;;4992585;28;20013;-77
2022/03/25 07:48:23;;;;;;;;;;;9.80;99.90;;;;;;5006362;28;19917;-77
2022/03/25 07:50:49;;;;;;;;;;;9.70;99.90;;;;;;4974157;28;19940;-77
2022/03/25 07:53:14;;;;;;;;;;;9.90;99.90;;;;;;4987243;28;19924;-77
2022/03/25 07:55:40;;;;;;;;;;;10.10;99.90;;;;;;5003494;28;19933;-77
2022/03/25 07:58:06;;;;;;;;;;;10.00;99.90;;;;;;5003390;28;19969;-77
2022/03/25 08:00:32;;;;;;;;;;;9.90;99.90;;;;;;5002494;28;20325;-77
2022/03/25 08:02:57;;;;;;;;;;;9.90;99.90;;;;;;5001968;28;19918;-77
2022/03/25 08:05:23;;;;;;;;;;;9.50;99.90;;;;;;4969901;28;19918;-77
2022/03/25 08:07:49;;;;;;;;;;;9.40;99.90;;;;;;4985366;28;20048;-77
2022/03/25 08:10:26;;;;;;;;;;;9.40;99.90;;;;;;4984969;28;19974;-77
2022/03/25 08:12:51;;;;;;;;;;;9.20;99.90;;;;;;4984829;28;19918;-77
2022/03/25 08:15:18;;;;;;;;;;;9.20;99.90;;;;;;5000947;28;19941;-77
2022/03/25 08:17:48;;;;;;;;;;;9.30;99.90;;;;;;4983519;28;19918;-77
2022/03/25 08:20:18;;;;;;;;;;;9.20;99.90;;;;;;4984987;28;19929;-77
2022/03/25 08:22:44;;;;;;;;;;;8.80;99.90;;;;;;4999153;28;19918;-77
2022/03/25 08:27:58;;;;;;;;;;;9.30;99.90;;;;;;4982595;28;19925;-77
2022/03/25 08:30:25;;;;;;;;;;;9.20;99.90;;;;;;4982829;28;19917;-77
2022/03/25 08:32:51;;;;;;;;;;;9.20;99.90;;;;;;4982509;28;19945;-77
2022/03/25 08:35:17;;;;;;;;;;;9.30;99.90;;;;;;4998773;28;19918;-77
2022/03/25 08:37:42;;;;;;;;;;;9.50;99.90;;;;;;4981348;28;20374;-77
2022/03/25 08:40:08;;;;;;;;;;;9.70;99.90;;;;;;4981004;28;19985;-77
2022/03/25 08:42:34;;;;;;;;;;;9.60;99.90;;;;;;4999829;28;19964;-77
2022/03/25 08:44:59;;;;;;;;;;;9.90;99.90;;;;;;4983799;28;19949;-77
2022/03/25 08:47:25;;;;;;;;;;;10.30;99.90;;;;;;4983452;28;19921;-77
2022/03/25 08:49:50;;;;;;;;;;;10.40;99.90;;;;;;4984566;28;19918;-77
2022/03/25 08:52:17;;;;;;;;;;;10.60;99.90;;;;;;5000082;28;19956;-77
2022/03/25 08:54:43;;;;;;;;;;;10.80;99.90;;;;;;4967863;28;19918;-77
2022/03/25 08:57:08;;;;;;;;;;;10.90;99.90;;;;;;4966864;28;19929;-77
2022/03/25 08:59:34;;;;;;;;;;;11.00;99.90;;;;;;4982976;28;20415;-77
2022/03/25 09:01:59;;;;;;;;;;;11.50;99.40;;;;;;4982645;28;19926;-77
2022/03/25 09:04:25;;;;;;;;;;;11.40;93.90;;;;;;4965613;28;19945;-77
2022/03/25 09:06:50;;;;;;;;;;;11.70;96.90;;;;;;4998634;28;19968;-77
2022/03/25 09:09:16;;;;;;;;;;;11.60;97.50;;;;;;4981454;28;19924;-77
2022/03/25 09:11:42;;;;;;;;;;;11.60;95.00;;;;;;4998353;28;19918;-77
2022/03/25 09:14:07;;;;;;;;;;;11.90;97.20;;;;;;4981450;28;19918;-77
2022/03/25 09:16:34;;;;;;;;;;;12.20;95.10;;;;;;4965536;28;19922;-77
2022/03/25 09:18:59;;;;;;;;;;;12.50;95.80;;;;;;4980100;28;20001;-77
2022/03/25 09:21:25;;;;;;;;;;;12.80;94.10;;;;;;4981409;28;19972;-77
2022/03/25 09:23:51;;;;;;;;;;;12.50;92.80;;;;;;4964429;28;19917;-77
2022/03/25 09:26:16;;;;;;;;;;;12.60;95.10;;;;;;4980108;28;20372;-77
2022/03/25 09:28:42;;;;;;;;;;;12.80;89.60;;;;;;4996448;28;20339;-77
2022/03/25 09:31:08;;;;;;;;;;;12.50;89.00;;;;;;4963872;28;20005;-77
2022/03/25 09:33:33;;;;;;;;;;;12.80;90.30;;;;;;4979483;28;20400;-77
2022/03/25 09:35:59;;;;;;;;;;;13.20;91.50;;;;;;4996597;28;19944;-77
2022/03/25 09:38:25;;;;;;;;;;;13.20;88.60;;;;;;4979754;28;19917;-77
2022/03/25 09:40:51;;;;;;;;;;;13.30;87.60;;;;;;4980083;28;19922;-77
2022/03/25 09:43:18;;;;;;;;;;;13.50;89.10;;;;;;4979217;28;19917;-77
2022/03/25 09:45:44;;;;;;;;;;;13.70;90.20;;;;;;4995888;28;20009;-77
2022/03/25 09:48:09;;;;;;;;;;;13.70;84.10;;;;;;4994656;28;19969;-77
2022/03/25 09:50:38;;;;;;;;;;;13.90;80.70;;;;;;4995959;28;20423;-77
2022/03/25 09:53:04;;;;;;;;;;;14.00;78.80;;;;;;4995111;28;19940;-77
2022/03/25 09:55:31;;;;;;;;;;;13.70;79.90;;;;;;4999067;28;19929;-77
2022/03/25 09:57:57;;;;;;;;;;;14.00;77.10;;;;;;4985504;28;19925;-77
2022/03/25 10:00:22;;;;;;;;;;;13.90;73.70;;;;;;4985725;28;20292;-77
2022/03/25 10:02:48;;;;;;;;;;;14.00;75.10;;;;;;4991546;28;19957;-77
2022/03/25 10:05:15;;;;;;;;;;;14.30;72.90;;;;;;4965627;28;19969;-77
2022/03/25 10:07:43;;;;;;;;;;;14.30;74.60;;;;;;4981959;28;19968;-77
2022/03/25 10:10:16;;;;;;;;;;;14.20;71.50;;;;;;4966325;28;19957;-77
2022/03/25 10:12:43;;;;;;;;;;;14.30;69.00;;;;;;4981181;28;20324;-77
2022/03/25 10:15:11;;;;;;;;;;;14.60;67.50;;;;;;4965933;28;20352;-77
2022/03/25 10:17:50;;;;;;;;;;;14.60;69.20;;;;;;4980987;28;19922;-77
2022/03/25 10:20:16;;;;;;;;;;;14.80;70.50;;;;;;4981916;28;19926;-77
2022/03/25 10:23:01;;;;;;;;;;;15.00;65.90;;;;;;4965557;28;19917;-77
2022/03/25 10:25:37;;;;;;;;;;;14.80;63.90;;;;;;4966005;28;19923;-77
2022/03/25 10:28:04;;;;;;;;;;;15.00;66.20;;;;;;4965530;28;19924;-77
2022/03/25 10:30:37;;;;;;;;;;;14.90;65.20;;;;;;4965848;28;19922;-77
2022/03/25 10:33:13;;;;;;;;;;;15.10;65.50;;;;;;4965008;28;20436;-77
2022/03/25 10:35:52;;;;;;;;;;;14.80;65.30;;;;;;4965486;28;20013;-77
2022/03/25 10:38:19;;;;;;;;;;;14.80;62.90;;;;;;4965556;28;19976;-77
2022/03/25 10:41:02;;;;;;;;;;;14.70;65.80;;;;;;4985342;28;19924;-77
2022/03/25 10:43:28;;;;;;;;;;;15.00;66.00;;;;;;4984818;28;19977;-77
2022/03/25 10:45:53;;;;;;;;;;;15.20;64.70;;;;;;5000945;28;20368;-77
2022/03/25 10:48:22;;;;;;;;;;;15.40;62.00;;;;;;4967757;28;19922;-77
2022/03/25 10:50:58;;;;;;;;;;;15.50;62.80;;;;;;4985382;28;20427;-77
2022/03/25 10:53:24;;;;;;;;;;;15.50;63.70;;;;;;5001129;28;19924;-77
2022/03/25 10:55:57;;;;;;;;;;;15.80;62.00;;;;;;5000533;28;19918;-77
2022/03/25 10:58:23;;;;;;;;;;;15.70;61.50;;;;;;5001101;28;20388;-77
2022/03/25 11:00:49;;;;;;;;;;;15.70;60.60;;;;;;5000635;28;19922;-77
2022/03/25 11:03:16;;;;;;;;;;;16.00;59.00;;;;;;4999765;28;19986;-77
2022/03/25 11:05:42;;;;;;;;;;;16.20;58.60;;;;;;4984559;28;19964;-77
2022/03/25 11:08:08;;;;;;;;;;;16.20;58.10;;;;;;4999817;28;19968;-77
2022/03/25 11:10:34;;;;;;;;;;;16.20;58.60;;;;;;4984414;28;19960;-77
2022/03/25 11:13:01;;;;;;;;;;;16.20;57.50;;;;;;4984054;28;19967;-77
2022/03/25 11:15:27;;;;;;;;;;;16.50;57.70;;;;;;5000671;28;19924;-77
2022/03/25 11:17:53;;;;;;;;;;;16.40;57.30;;;;;;4983020;28;19921;-77
2022/03/25 11:20:20;;;;;;;;;;;16.30;54.80;;;;;;4984430;28;19917;-77
2022/03/25 11:22:46;;;;;;;;;;;16.60;54.60;;;;;;4999896;28;20012;-77
2022/03/25 11:25:13;;;;;;;;;;;16.30;54.00;;;;;;4984405;28;19961;-77
2022/03/25 11:27:40;;;;;;;;;;;16.40;55.40;;;;;;5000005;28;20312;-77
2022/03/25 11:30:09;;;;;;;;;;;16.50;55.60;;;;;;4983746;28;19922;-77
2022/03/25 11:32:46;;;;;;;;;;;16.80;53.70;;;;;;4982928;28;19925;-78
2022/03/25 11:35:16;;;;;;;;;;;16.60;55.10;;;;;;4999609;28;19917;-78
2022/03/25 11:37:41;;;;;;;;;;;16.70;53.70;;;;;;4999635;28;19976;-78
2022/03/25 11:40:14;;;;;;;;;;;16.70;53.10;;;;;;4967161;28;19917;-78
2022/03/25 11:42:48;;;;;;;;;;;16.80;54.90;;;;;;4980095;28;19918;-78
2022/03/25 11:45:25;;;;;;;;;;;16.60;53.00;;;;;;4964369;28;19917;-78
2022/03/25 11:47:59;;;;;;;;;;;16.70;54.50;;;;;;4963367;28;19964;-78
2022/03/25 11:50:37;;;;;;;;;;;16.40;54.60;;;;;;4963441;28;19921;-78
2022/03/25 11:53:12;;;;;;;;;;;16.90;52.40;;;;;;4963443;28;19940;-78
2022/03/25 11:55:56;;;;;;;;;;;17.10;53.50;;;;;;4979445;28;20336;-78
2022/03/25 11:58:22;;;;;;;;;;;17.00;52.80;;;;;;4963187;28;19948;-78
2022/03/25 12:00:48;;;;;;;;;;;17.30;51.90;;;;;;4979703;28;19917;-78
2022/03/25 12:03:15;;;;;;;;;;;17.20;52.30;;;;;;4962444;28;19924;-78
2022/03/25 12:06:03;;;;;;;;;;;17.10;52.20;;;;;;4979511;28;19972;-78
2022/03/25 12:08:29;;;;;;;;;;;17.20;52.80;;;;;;4963379;28;19918;-78
2022/03/25 12:10:55;;;;;;;;;;;17.00;53.70;;;;;;4963839;28;20020;-78
2022/03/25 12:13:21;;;;;;;;;;;17.10;53.30;;;;;;4987867;28;20464;-78
2022/03/25 12:15:48;;;;;;;;;;;16.90;53.40;;;;;;4982736;28;20047;-78
2022/03/25 12:18:33;;;;;;;;;;;16.90;52.90;;;;;;4982073;28;20025;-78
2022/03/25 12:20:58;;;;;;;;;;;16.90;53.00;;;;;;4999509;28;20332;-78
2022/03/25 12:23:24;;;;;;;;;;;17.00;53.50;;;;;;4982448;28;19917;-78
2022/03/25 12:25:50;;;;;;;;;;;17.00;53.80;;;;;;4982378;28;20369;-78
2022/03/25 12:28:22;;;;;;;;;;;17.10;53.10;;;;;;4982656;28;20008;-78
2022/03/25 12:30:47;;;;;;;;;;;17.10;52.30;;;;;;4999659;28;19917;-78
2022/03/25 12:33:13;;;;;;;;;;;17.00;53.60;;;;;;4998248;28;19924;-78
2022/03/25 12:35:39;;;;;;;;;;;17.10;53.30;;;;;;4983085;28;19917;-78
2022/03/25 12:38:14;;;;;;;;;;;17.40;51.20;;;;;;4982481;28;20012;-78
2022/03/25 12:40:39;;;;;;;;;;;17.30;52.00;;;;;;4982699;28;19922;-78
2022/03/25 12:43:08;;;;;;;;;;;17.10;52.30;;;;;;4999088;28;20114;-78
2022/03/25 12:45:49;;;;;;;;;;;17.20;53.80;;;;;;4966760;28;19922;-78
2022/03/25 12:48:23;;;;;;;;;;;17.20;51.20;;;;;;4982602;28;20368;-78
2022/03/25 12:50:49;;;;;;;;;;;17.10;51.40;;;;;;4999040;28;19917;-78
2022/03/25 12:53:16;;;;;;;;;;;17.00;51.20;;;;;;4982873;28;19967;-78
2022/03/25 12:55:42;;;;;;;;;;;17.10;52.60;;;;;;4999110;28;19953;-78
2022/03/25 12:58:12;;;;;;;;;;;17.10;51.20;;;;;;4982304;28;19940;-78
2022/03/25 13:00:42;;;;;;;;;;;17.20;50.80;;;;;;4999765;28;20280;-78
2022/03/25 13:03:08;;;;;;;;;;;17.10;51.60;;;;;;4988789;28;19918;-78
2022/03/25 13:05:34;;;;;;;;;;;17.20;52.00;;;;;;4979777;28;19951;-78
2022/03/25 13:08:00;;;;;;;;;;;17.10;52.40;;;;;;4963500;28;19917;-78
2022/03/25 13:10:27;;;;;;;;;;;17.20;52.40;;;;;;4964072;28;19922;-78
2022/03/25 13:12:53;;;;;;;;;;;17.30;51.80;;;;;;4963237;28;19918;-78
2022/03/25 13:15:25;;;;;;;;;;;17.40;51.10;;;;;;4963476;28;19917;-78
2022/03/25 13:17:51;;;;;;;;;;;17.10;51.90;;;;;;4979191;28;19929;-78
2022/03/25 13:20:22;;;;;;;;;;;17.30;52.60;;;;;;4979164;28;19918;-78
2022/03/25 13:23:06;;;;;;;;;;;17.20;51.10;;;;;;4980090;28;19922;-78
2022/03/25 13:25:39;;;;;;;;;;;17.20;52.10;;;;;;4979818;28;20361;-78
2022/03/25 13:28:06;;;;;;;;;;;17.20;51.00;;;;;;4979625;28;19922;-78
2022/03/25 13:30:33;;;;;;;;;;;17.00;50.30;;;;;;4981545;28;19917;-79
2022/03/25 13:33:06;;;;;;;;;;;16.90;51.50;;;;;;4984681;28;19918;-78
2022/03/25 13:35:48;;;;;;;;;;;17.00;50.40;;;;;;4973259;28;19925;-78
2022/03/25 13:38:15;;;;;;;;;;;17.20;48.70;;;;;;4980523;28;20037;-77
2022/03/25 13:40:48;;;;;;;;;;;17.20;49.10;;;;;;5009718;28;20284;-77
2022/03/25 13:43:14;;;;;;;;;;;17.20;49.10;;;;;;4993821;28;20008;-77
2022/03/25 13:45:40;;;;;;;;;;;17.20;47.90;;;;;;5016950;28;19917;-77
2022/03/25 13:48:14;;;;;;;;;;;17.10;48.50;;;;;;5015622;28;19921;-77
2022/03/25 13:50:48;;;;;;;;;;;17.10;47.80;;;;;;5016468;28;19917;-77
2022/03/25 13:53:14;;;;;;;;;;;17.10;47.00;;;;;;4984948;28;19925;-77
2022/03/25 13:55:41;;;;;;;;;;;17.10;47.90;;;;;;4998144;28;19917;-77
2022/03/25 13:58:14;;;;;;;;;;;17.20;47.60;;;;;;4998521;28;19921;-77
2022/03/25 14:00:41;;;;;;;;;;;17.10;47.40;;;;;;4999901;28;19972;-77
2022/03/25 14:03:08;;;;;;;;;;;17.10;46.50;;;;;;4980382;28;19925;-77
2022/03/25 14:05:34;;;;;;;;;;;17.10;45.70;;;;;;5001079;28;19921;-77
2022/03/25 14:07:59;;;;;;;;;;;17.20;46.00;;;;;;5003042;28;19972;-77
2022/03/25 14:10:25;;;;;;;;;;;17.20;46.50;;;;;;5003915;28;20331;-77
2022/03/25 14:13:05;;;;;;;;;;;17.20;46.00;;;;;;5020358;28;19963;-77
2022/03/25 14:15:31;;;;;;;;;;;17.10;46.00;;;;;;5016387;28;19917;-77
2022/03/25 14:17:57;;;;;;;;;;;17.00;45.20;;;;;;4996831;28;20005;-77
2022/03/25 14:20:23;;;;;;;;;;;16.90;43.30;;;;;;4998142;28;19921;-77
2022/03/25 14:22:50;;;;;;;;;;;16.80;42.70;;;;;;4981107;28;19940;-77
2022/03/25 14:25:17;;;;;;;;;;;17.00;43.40;;;;;;4999093;28;19928;-77